Time;durP1;ratioP1;P1;durP2;ratioP2;P2;SDS_P1;SDS_P2;PMS_P1;PMS_P2;Temp;Humidity;BMP_temperature;BMP_pressure;BME280_temperature;BME280_humidity;BME280_pressure;Samples;Min_cycle;Max_cycle;Signal;HPM_P1;HPM_P2
2020/12/18 00:00:10;;;;;;;8.43;3.17;;;7.40;99.90;;;;;;5015006;28;20568;-87
2020/12/18 00:02:36;;;;;;;6.70;2.90;;;7.30;99.90;;;;;;5014496;28;20460;-87
2020/12/18 00:05:03;;;;;;;7.70;3.00;;;7.50;99.90;;;;;;4995570;28;20529;-87
2020/12/18 00:07:29;;;;;;;6.17;2.87;;;7.60;99.90;;;;;;4995403;28;20450;-87
2020/12/18 00:09:55;;;;;;;8.40;3.60;;;7.60;99.90;;;;;;4996409;28;20561;-86
2020/12/18 00:12:22;;;;;;;5.30;2.87;;;7.70;99.90;;;;;;5011881;28;20517;-86
2020/12/18 00:14:50;;;;;;;4.70;2.90;;;7.90;99.90;;;;;;5019359;28;21003;-86
2020/12/18 00:17:17;;;;;;;4.60;2.43;;;8.00;99.90;;;;;;5019575;28;20456;-86
2020/12/18 00:19:43;;;;;;;4.70;2.70;;;8.00;99.90;;;;;;5018502;28;20450;-87
2020/12/18 00:22:09;;;;;;;5.60;3.00;;;7.90;99.90;;;;;;5018978;28;20508;-86
2020/12/18 00:24:35;;;;;;;5.13;2.83;;;7.90;99.90;;;;;;5019139;28;20485;-86
2020/12/18 00:27:03;;;;;;;4.53;2.53;;;7.90;99.90;;;;;;5020443;28;20468;-86
2020/12/18 00:29:30;;;;;;;5.57;2.67;;;7.90;99.90;;;;;;5001574;28;20496;-86
2020/12/18 00:31:57;;;;;;;6.23;3.33;;;7.90;99.90;;;;;;5019972;28;20544;-86
2020/12/18 00:34:23;;;;;;;7.00;2.90;;;7.90;99.90;;;;;;5021087;28;20538;-86
2020/12/18 00:36:52;;;;;;;4.40;2.70;;;7.90;99.90;;;;;;5021344;28;20568;-86
2020/12/18 00:39:18;;;;;;;4.60;2.57;;;7.90;99.90;;;;;;5018397;28;20525;-87
2020/12/18 00:41:51;;;;;;;4.30;2.60;;;7.90;99.90;;;;;;5015345;28;20460;-88
2020/12/18 00:44:17;;;;;;;5.80;2.70;;;7.90;99.90;;;;;;5015327;28;20478;-88
2020/12/18 00:46:45;;;;;;;4.60;2.50;;;7.90;99.90;;;;;;5014759;28;20548;-88
2020/12/18 00:49:11;;;;;;;8.07;2.37;;;7.90;99.90;;;;;;5015178;28;20455;-88
2020/12/18 00:51:37;;;;;;;7.77;2.90;;;7.80;99.90;;;;;;5014517;28;20457;-88
2020/12/18 00:54:04;;;;;;;5.40;2.07;;;7.70;99.90;;;;;;5014816;28;20544;-88
2020/12/18 00:56:30;;;;;;;7.03;2.33;;;7.70;99.90;;;;;;5015370;28;20533;-88
2020/12/18 00:58:56;;;;;;;4.93;2.80;;;7.80;99.90;;;;;;5015807;28;20445;-88
2020/12/18 01:01:23;;;;;;;5.30;3.17;;;7.70;99.90;;;;;;5014957;28;20464;-88
2020/12/18 01:03:50;;;;;;;5.17;3.00;;;7.70;99.90;;;;;;5014646;28;20564;-88
2020/12/18 01:06:17;;;;;;;5.57;2.80;;;7.70;99.90;;;;;;5014725;28;21041;-87
2020/12/18 01:08:43;;;;;;;10.10;4.27;;;7.70;99.90;;;;;;5014798;28;20456;-88
2020/12/18 01:11:10;;;;;;;6.00;2.60;;;7.70;99.90;;;;;;5014870;28;20564;-87
2020/12/18 01:13:36;;;;;;;4.23;2.47;;;7.70;99.90;;;;;;5017629;28;20515;-87
2020/12/18 01:16:02;;;;;;;3.97;2.50;;;7.60;99.90;;;;;;5016017;28;20533;-87
2020/12/18 01:18:29;;;;;;;5.93;2.37;;;7.70;99.90;;;;;;5016498;28;20461;-87
2020/12/18 01:21:00;;;;;;;6.50;3.07;;;7.70;99.90;;;;;;5018265;28;20462;-87
2020/12/18 01:23:26;;;;;;;5.37;3.00;;;7.60;99.90;;;;;;5019025;28;20492;-87
2020/12/18 01:25:56;;;;;;;8.33;3.03;;;7.60;99.90;;;;;;5018831;28;20458;-87
2020/12/18 01:28:22;;;;;;;6.57;3.00;;;7.50;99.90;;;;;;5018582;28;20445;-86
2020/12/18 01:30:48;;;;;;;5.63;2.73;;;7.50;99.90;;;;;;5017761;28;20453;-86
2020/12/18 01:33:15;;;;;;;4.70;2.60;;;7.50;99.90;;;;;;5017483;28;20554;-86
2020/12/18 01:35:41;;;;;;;6.57;2.93;;;7.40;99.90;;;;;;5018136;28;20464;-86
2020/12/18 01:38:08;;;;;;;4.07;2.43;;;7.30;99.90;;;;;;5036603;28;20472;-86
2020/12/18 01:40:35;;;;;;;6.00;2.67;;;7.20;99.90;;;;;;5031816;28;20458;-86
2020/12/18 01:43:03;;;;;;;12.47;3.47;;;7.20;99.90;;;;;;5016859;28;20925;-86
2020/12/18 01:45:31;;;;;;;8.13;2.90;;;7.20;99.90;;;;;;5017250;28;20576;-86
2020/12/18 01:47:57;;;;;;;7.50;2.93;;;7.20;99.90;;;;;;5017528;28;20454;-87
2020/12/18 01:50:24;;;;;;;5.87;2.60;;;7.10;99.90;;;;;;5017560;28;20461;-86
2020/12/18 01:52:51;;;;;;;7.63;2.67;;;7.00;99.90;;;;;;5025439;28;20456;-86
2020/12/18 01:55:19;;;;;;;5.90;2.97;;;6.90;99.90;;;;;;5017862;28;20794;-87
2020/12/18 01:57:46;;;;;;;5.83;2.60;;;6.80;99.90;;;;;;5017303;28;20539;-85
2020/12/18 02:00:14;;;;;;;6.50;2.27;;;6.70;99.90;;;;;;5018255;28;20457;-86
2020/12/18 02:02:40;;;;;;;6.10;3.00;;;6.70;99.90;;;;;;5017866;28;20454;-87
2020/12/18 02:05:07;;;;;;;7.83;2.90;;;6.70;99.90;;;;;;5017523;28;20484;-86
2020/12/18 02:07:44;;;;;;;8.10;2.70;;;6.70;99.90;;;;;;5018172;28;20843;-86
2020/12/18 02:10:48;;;;;;;7.73;2.80;;;6.60;99.90;;;;;;5017507;28;20433;-86
2020/12/18 02:13:17;;;;;;;6.90;3.07;;;6.70;99.90;;;;;;5016801;28;21049;-86
2020/12/18 02:15:43;;;;;;;5.90;3.40;;;6.70;99.90;;;;;;5017179;28;20914;-87
2020/12/18 02:18:10;;;;;;;5.40;2.50;;;6.70;99.90;;;;;;5016981;28;20475;-86
2020/12/18 02:20:36;;;;;;;6.13;2.40;;;6.80;99.90;;;;;;5017324;28;20469;-86
2020/12/18 02:23:02;;;;;;;7.63;2.47;;;6.80;99.90;;;;;;5017034;28;20461;-86
2020/12/18 02:25:31;;;;;;;7.03;2.47;;;6.80;99.90;;;;;;5017379;28;20498;-86
2020/12/18 02:27:59;;;;;;;4.03;2.53;;;6.80;99.90;;;;;;5016858;28;20442;-86
2020/12/18 02:30:25;;;;;;;9.50;2.23;;;6.80;99.90;;;;;;5016405;28;20458;-88
2020/12/18 02:32:51;;;;;;;3.63;2.13;;;6.70;99.90;;;;;;5017214;28;20457;-88
2020/12/18 02:35:18;;;;;;;5.80;2.00;;;6.80;99.90;;;;;;5017644;28;20464;-88
2020/12/18 02:38:23;;;;;;;6.70;3.03;;;6.90;99.90;;;;;;5017093;28;20561;-88
2020/12/18 02:40:50;;;;;;;5.40;2.50;;;6.80;99.90;;;;;;5017428;28;20525;-88
2020/12/18 02:43:17;;;;;;;6.90;2.30;;;6.80;99.90;;;;;;5016702;28;20456;-89
2020/12/18 02:45:43;;;;;;;6.90;2.47;;;6.90;99.90;;;;;;5016948;28;20571;-87
2020/12/18 02:48:10;;;;;;;5.60;2.10;;;6.80;99.90;;;;;;5017212;28;20449;-88
2020/12/18 02:50:36;;;;;;;5.80;2.73;;;6.80;99.90;;;;;;5017017;28;20554;-88
2020/12/18 02:53:11;;;;;;;4.77;2.03;;;6.80;99.90;;;;;;5027622;28;20766;-88
2020/12/18 02:55:38;;;;;;;5.47;2.20;;;6.70;99.90;;;;;;5026461;28;20776;-88
2020/12/18 02:58:04;;;;;;;7.07;2.30;;;6.70;99.90;;;;;;5016653;28;20449;-88
2020/12/18 03:00:31;;;;;;;6.23;2.10;;;6.60;99.90;;;;;;5016466;28;20457;-87
2020/12/18 03:02:57;;;;;;;2.70;1.57;;;6.50;99.90;;;;;;5016631;28;20943;-88
2020/12/18 03:05:24;;;;;;;5.80;2.07;;;6.40;99.90;;;;;;5016746;28;20482;-87
2020/12/18 03:07:50;;;;;;;7.37;2.13;;;6.30;99.90;;;;;;5016741;28;20569;-87
2020/12/18 03:10:19;;;;;;;8.20;1.83;;;6.30;99.90;;;;;;5015847;28;20464;-85
2020/12/18 03:12:45;;;;;;;6.83;2.07;;;6.20;99.90;;;;;;5015374;28;20457;-85
2020/12/18 03:15:12;;;;;;;5.27;2.40;;;6.20;99.90;;;;;;5015745;28;20548;-86
2020/12/18 03:17:39;;;;;;;4.83;1.97;;;6.10;99.90;;;;;;5015807;28;20457;-85
2020/12/18 03:20:05;;;;;;;5.90;2.40;;;6.00;99.90;;;;;;5015842;28;20446;-85
2020/12/18 03:22:32;;;;;;;6.17;2.10;;;6.00;99.90;;;;;;5015827;28;20497;-85
2020/12/18 03:24:58;;;;;;;4.43;2.10;;;5.90;99.90;;;;;;5015834;28;20485;-87
2020/12/18 03:27:25;;;;;;;4.50;2.27;;;5.90;99.90;;;;;;5015912;28;20454;-86
2020/12/18 03:29:51;;;;;;;3.43;2.13;;;5.90;99.90;;;;;;5015831;28;20449;-85
2020/12/18 03:32:18;;;;;;;3.33;1.90;;;5.90;99.90;;;;;;5015813;28;20448;-85
2020/12/18 03:34:45;;;;;;;4.13;1.93;;;5.90;99.90;;;;;;5016010;28;20451;-85
2020/12/18 03:37:12;;;;;;;3.20;1.70;;;5.90;99.90;;;;;;5015448;28;20577;-85
2020/12/18 03:39:38;;;;;;;7.90;3.70;;;5.80;99.90;;;;;;5015804;28;20522;-86
2020/12/18 03:42:04;;;;;;;4.70;1.40;;;5.80;99.90;;;;;;5015879;28;20542;-86
2020/12/18 03:44:31;;;;;;;4.80;1.90;;;5.80;99.90;;;;;;5016026;28;20828;-85
2020/12/18 03:47:00;;;;;;;5.40;2.27;;;5.80;99.90;;;;;;5016125;28;20764;-85
2020/12/18 03:49:26;;;;;;;4.57;2.03;;;5.80;99.90;;;;;;4998248;28;20436;-85
2020/12/18 03:51:53;;;;;;;4.30;1.60;;;5.70;99.90;;;;;;4996126;28;20841;-87
2020/12/18 03:54:20;;;;;;;6.60;3.10;;;5.70;99.90;;;;;;5013403;28;20597;-85
2020/12/18 03:56:46;;;;;;;3.20;1.80;;;5.70;99.90;;;;;;5015717;28;20540;-85
2020/12/18 03:59:12;;;;;;;5.97;2.03;;;5.60;99.90;;;;;;5016083;28;20450;-85
2020/12/18 04:01:39;;;;;;;3.57;2.03;;;5.60;99.90;;;;;;5015675;28;20502;-85
2020/12/18 04:04:05;;;;;;;2.37;1.97;;;5.60;99.90;;;;;;5015617;28;20580;-86
2020/12/18 04:06:31;;;;;;;2.50;1.50;;;5.60;99.90;;;;;;5016408;28;20462;-85
2020/12/18 04:09:00;;;;;;;4.10;1.40;;;5.60;99.90;;;;;;5016020;28;20459;-86
2020/12/18 04:11:28;;;;;;;4.20;1.90;;;5.60;99.90;;;;;;5014643;28;20546;-87
2020/12/18 04:13:54;;;;;;;4.00;2.63;;;5.50;99.90;;;;;;4996000;28;20457;-85
2020/12/18 04:16:20;;;;;;;8.97;2.50;;;5.50;99.90;;;;;;4995501;28;20461;-87
2020/12/18 04:18:48;;;;;;;9.10;2.70;;;5.50;99.90;;;;;;4995537;28;20461;-86
2020/12/18 04:21:14;;;;;;;6.63;2.00;;;5.50;99.90;;;;;;4995580;28;20978;-86
2020/12/18 04:23:41;;;;;;;5.80;2.00;;;5.60;99.90;;;;;;5011558;28;20453;-87
2020/12/18 04:26:08;;;;;;;5.93;2.77;;;5.50;99.90;;;;;;5014548;28;20496;-87
2020/12/18 04:28:34;;;;;;;6.00;2.57;;;5.50;99.90;;;;;;5015229;28;20777;-88
2020/12/18 04:31:01;;;;;;;3.90;1.73;;;5.50;99.90;;;;;;5014783;28;20457;-86
2020/12/18 04:33:27;;;;;;;3.30;2.17;;;5.50;99.90;;;;;;5014920;28;20456;-85
2020/12/18 04:35:53;;;;;;;4.17;1.73;;;5.50;99.90;;;;;;5015182;28;20535;-85
2020/12/18 04:38:20;;;;;;;4.80;1.97;;;5.50;99.90;;;;;;5012146;28;20515;-85
2020/12/18 04:40:46;;;;;;;5.00;3.13;;;5.50;99.90;;;;;;5015311;28;20508;-85
2020/12/18 04:43:13;;;;;;;2.90;1.73;;;5.50;99.90;;;;;;5014717;28;20460;-85
2020/12/18 04:45:40;;;;;;;3.70;1.97;;;5.50;99.90;;;;;;5014912;28;20485;-85
2020/12/18 04:48:08;;;;;;;6.20;2.10;;;5.50;99.90;;;;;;5015273;28;20462;-86
2020/12/18 04:50:35;;;;;;;4.60;2.20;;;5.40;99.90;;;;;;5013921;28;20918;-86
2020/12/18 04:53:02;;;;;;;11.00;1.90;;;5.40;99.90;;;;;;5012753;28;20462;-87
2020/12/18 04:55:29;;;;;;;3.97;2.03;;;5.40;99.90;;;;;;5013847;28;20469;-84
2020/12/18 04:57:57;;;;;;;6.03;2.70;;;5.30;99.90;;;;;;5002839;28;20460;-85
2020/12/18 05:00:25;;;;;;;5.40;2.30;;;5.30;99.90;;;;;;5013102;28;20519;-84
2020/12/18 05:02:52;;;;;;;3.00;1.90;;;5.20;99.90;;;;;;5014015;28;20526;-86
2020/12/18 05:05:18;;;;;;;5.30;2.30;;;5.20;99.90;;;;;;5013892;28;20582;-87
2020/12/18 05:07:44;;;;;;;6.77;2.50;;;5.30;99.90;;;;;;5014148;28;20450;-86
2020/12/18 05:10:11;;;;;;;6.60;2.50;;;5.20;99.90;;;;;;5013762;28;20544;-87
2020/12/18 05:12:38;;;;;;;6.70;3.20;;;5.20;99.90;;;;;;5010501;28;20507;-86
2020/12/18 05:15:05;;;;;;;5.60;3.20;;;5.20;99.90;;;;;;5013678;28;20461;-87
2020/12/18 05:17:33;;;;;;;8.20;2.70;;;5.20;99.90;;;;;;5010144;28;20464;-87
2020/12/18 05:20:02;;;;;;;6.30;3.37;;;5.20;99.90;;;;;;5014112;28;20447;-86
2020/12/18 05:22:29;;;;;;;6.70;2.83;;;5.30;99.90;;;;;;5013497;28;20512;-86
2020/12/18 05:24:55;;;;;;;3.50;2.23;;;5.20;99.90;;;;;;5014158;28;20488;-86
2020/12/18 05:27:23;;;;;;;4.57;2.70;;;5.20;99.90;;;;;;5013342;28;20450;-87
2020/12/18 05:29:50;;;;;;;5.27;2.73;;;5.20;99.90;;;;;;5014038;28;20459;-86
2020/12/18 05:32:16;;;;;;;6.90;2.83;;;5.20;99.90;;;;;;5012716;28;20483;-86
2020/12/18 05:34:44;;;;;;;6.43;2.37;;;5.20;99.90;;;;;;5013360;28;20458;-86
2020/12/18 05:37:13;;;;;;;4.80;2.27;;;5.10;99.90;;;;;;5013505;28;20452;-87
2020/12/18 05:39:40;;;;;;;9.53;2.73;;;5.20;99.90;;;;;;5013949;28;20495;-87
2020/12/18 05:42:07;;;;;;;4.97;2.60;;;5.20;99.90;;;;;;5013378;28;20967;-87
2020/12/18 05:44:33;;;;;;;6.93;2.80;;;5.10;99.90;;;;;;5013607;28;20498;-86
2020/12/18 05:47:06;;;;;;;6.20;3.27;;;5.10;99.90;;;;;;5013828;28;20450;-85
2020/12/18 05:49:34;;;;;;;3.83;2.57;;;5.00;99.90;;;;;;5013368;28;20992;-86
2020/12/18 05:52:03;;;;;;;8.40;3.33;;;5.10;99.90;;;;;;5012115;28;20467;-85
2020/12/18 05:54:34;;;;;;;5.80;2.90;;;5.10;99.90;;;;;;5008743;28;20468;-86
2020/12/18 05:57:09;;;;;;;7.13;2.70;;;5.10;99.90;;;;;;5013529;28;20537;-85
2020/12/18 05:59:41;;;;;;;6.90;2.33;;;5.10;99.90;;;;;;5013314;28;20440;-86
2020/12/18 06:02:11;;;;;;;6.17;2.37;;;5.10;99.90;;;;;;5011814;28;20483;-86
2020/12/18 06:04:38;;;;;;;4.67;2.80;;;5.10;99.90;;;;;;5014040;28;20505;-85
2020/12/18 06:07:06;;;;;;;5.10;2.87;;;5.10;99.90;;;;;;5016258;28;20448;-90
2020/12/18 06:09:34;;;;;;;3.70;2.30;;;5.10;99.90;;;;;;5015950;28;20943;-85
2020/12/18 06:12:06;;;;;;;4.63;2.10;;;5.10;99.90;;;;;;5016436;28;20515;-85
2020/12/18 06:14:32;;;;;;;5.43;2.30;;;5.10;99.90;;;;;;5016770;28;20440;-87
2020/12/18 06:17:05;;;;;;;4.03;1.97;;;5.10;99.90;;;;;;5016250;28;20450;-85
2020/12/18 06:19:36;;;;;;;6.63;2.37;;;5.00;99.90;;;;;;4998683;28;20796;-86
2020/12/18 06:22:03;;;;;;;5.10;3.47;;;5.00;99.90;;;;;;5014003;28;20450;-86
2020/12/18 06:24:30;;;;;;;4.77;2.40;;;5.00;99.90;;;;;;5015344;28;20520;-85
2020/12/18 06:26:57;;;;;;;5.13;2.67;;;5.00;99.90;;;;;;5016772;28;20983;-87
2020/12/18 06:29:25;;;;;;;3.10;2.13;;;5.00;99.90;;;;;;5016075;28;20951;-87
2020/12/18 06:31:51;;;;;;;5.17;2.43;;;5.00;99.90;;;;;;5015972;28;20968;-85
2020/12/18 06:34:23;;;;;;;3.50;2.00;;;5.00;99.90;;;;;;5016644;28;20486;-87
2020/12/18 06:36:59;;;;;;;3.50;2.20;;;5.10;99.90;;;;;;5016647;28;20443;-85
2020/12/18 06:39:28;;;;;;;15.57;3.13;;;5.10;99.90;;;;;;5016272;28;21368;-85
2020/12/18 06:42:17;;;;;;;7.10;2.57;;;5.20;99.90;;;;;;5016200;28;20773;-86
2020/12/18 06:44:46;;;;;;;7.53;2.50;;;5.20;99.90;;;;;;5011082;28;20557;-86
2020/12/18 06:47:19;;;;;;;4.70;2.27;;;5.20;99.90;;;;;;5016351;28;20539;-87
2020/12/18 06:50:16;;;;;;;8.07;2.97;;;5.30;99.90;;;;;;5016073;28;20540;-88
2020/12/18 06:52:46;;;;;;;6.40;2.27;;;5.30;99.90;;;;;;4935888;29;20840;-88
2020/12/18 06:55:14;;;;;;;10.57;2.73;;;5.50;99.90;;;;;;4997788;28;20550;-88
2020/12/18 06:57:41;;;;;;;5.50;2.97;;;5.50;99.90;;;;;;5014918;28;20462;-88
2020/12/18 07:00:29;;;;;;;7.30;3.07;;;5.50;99.90;;;;;;5010641;28;20450;-90
2020/12/18 07:02:57;;;;;;;4.03;2.67;;;5.40;99.90;;;;;;4997513;28;20469;-86
2020/12/18 07:05:34;;;;;;;6.17;2.93;;;5.50;99.90;;;;;;5011175;28;20499;-87
2020/12/18 07:08:03;;;;;;;6.40;2.90;;;5.50;99.90;;;;;;5014562;28;20538;-86
2020/12/18 07:10:35;;;;;;;7.10;2.70;;;5.50;99.90;;;;;;5014810;28;20220;-87
2020/12/18 07:13:03;;;;;;;6.23;2.70;;;5.60;99.90;;;;;;5015313;28;20479;-87
2020/12/18 07:16:01;;;;;;;5.57;2.40;;;5.70;99.90;;;;;;5014342;28;20940;-86
2020/12/18 07:18:29;;;;;;;7.30;3.10;;;5.70;99.90;;;;;;5014345;28;20949;-86
2020/12/18 07:20:57;;;;;;;4.37;2.50;;;5.70;99.90;;;;;;5014973;28;20470;-86
2020/12/18 07:23:26;;;;;;;5.53;2.50;;;5.70;99.90;;;;;;5014968;28;20459;-86
2020/12/18 07:25:53;;;;;;;16.03;2.93;;;5.70;99.90;;;;;;5015115;28;20551;-86
2020/12/18 07:28:22;;;;;;;6.73;2.70;;;5.80;99.90;;;;;;5014562;28;20473;-86
2020/12/18 07:30:50;;;;;;;7.03;2.57;;;5.80;99.90;;;;;;5017022;28;20456;-85
2020/12/18 07:33:17;;;;;;;7.47;2.70;;;5.70;99.90;;;;;;5014539;28;20452;-86
2020/12/18 07:35:48;;;;;;;5.70;2.20;;;5.70;99.90;;;;;;5014977;28;20565;-84
2020/12/18 07:38:23;;;;;;;7.73;2.37;;;5.70;99.90;;;;;;5014812;28;20453;-85
2020/12/18 07:40:52;;;;;;;5.47;2.40;;;5.80;99.90;;;;;;5013750;28;20542;-87
2020/12/18 07:43:22;;;;;;;5.57;2.77;;;5.90;99.90;;;;;;5008230;28;20884;-87
2020/12/18 07:45:54;;;;;;;9.37;2.77;;;6.00;99.90;;;;;;5014553;28;20509;-88
2020/12/18 07:48:26;;;;;;;12.20;2.67;;;6.10;99.90;;;;;;5011889;28;20451;-88
2020/12/18 07:51:04;;;;;;;6.70;2.43;;;6.10;99.90;;;;;;5013954;28;21032;-86
2020/12/18 07:53:32;;;;;;;12.03;2.80;;;6.20;99.90;;;;;;5013867;28;20445;-88
2020/12/18 07:56:06;;;;;;;6.53;2.47;;;6.20;99.90;;;;;;5014129;28;20931;-88
2020/12/18 07:58:34;;;;;;;6.40;2.83;;;6.10;99.90;;;;;;5013875;28;20919;-86
2020/12/18 08:01:06;;;;;;;10.73;3.30;;;6.30;99.90;;;;;;5014104;28;20456;-87
2020/12/18 08:03:33;;;;;;;6.07;2.07;;;6.30;99.90;;;;;;5013421;28;20484;-87
2020/12/18 08:06:03;;;;;;;11.43;3.20;;;6.40;99.90;;;;;;5013844;28;20487;-86
2020/12/18 08:08:32;;;;;;;13.60;3.83;;;6.40;99.90;;;;;;5013046;28;20457;-87
2020/12/18 08:11:01;;;;;;;6.67;2.80;;;6.40;99.90;;;;;;5013422;28;20798;-88
2020/12/18 08:13:29;;;;;;;5.30;2.93;;;6.50;99.90;;;;;;5008061;28;20468;-90
2020/12/18 08:16:13;;;;;;;5.63;2.30;;;6.50;99.90;;;;;;5015877;28;20449;-89
2020/12/18 08:18:48;;;;;;;7.33;2.37;;;6.50;99.90;;;;;;5014663;28;20464;-87
2020/12/18 08:21:16;;;;;;;8.37;2.30;;;6.70;99.90;;;;;;5013196;28;20469;-87
2020/12/18 08:23:53;;;;;;;4.17;1.97;;;6.80;99.90;;;;;;5006264;28;20488;-87
2020/12/18 08:26:23;;;;;;;5.47;2.23;;;6.90;99.90;;;;;;5009191;28;20508;-87
2020/12/18 08:28:51;;;;;;;7.13;2.40;;;7.00;99.90;;;;;;5010580;28;20464;-87
2020/12/18 08:31:19;;;;;;;3.30;1.83;;;7.00;99.90;;;;;;5002727;28;20450;-88
2020/12/18 08:33:52;;;;;;;6.50;2.23;;;7.10;99.90;;;;;;5011285;28;20491;-87
2020/12/18 08:36:20;;;;;;;4.97;2.00;;;7.20;99.90;;;;;;5005450;28;20466;-89
2020/12/18 08:39:00;;;;;;;4.43;2.43;;;7.30;99.90;;;;;;5010407;28;20568;-87
2020/12/18 08:41:37;;;;;;;3.27;1.80;;;7.40;99.90;;;;;;5004244;28;20580;-87
2020/12/18 08:44:05;;;;;;;3.67;2.30;;;7.40;99.90;;;;;;5009859;28;20513;-90
2020/12/18 08:46:36;;;;;;;3.90;1.60;;;7.50;99.90;;;;;;5014616;28;20523;-91
2020/12/18 08:49:12;;;;;;;4.77;2.37;;;7.60;99.90;;;;;;5038868;28;20454;-91
2020/12/18 08:51:38;;;;;;;7.03;2.20;;;7.70;99.90;;;;;;5014253;28;20552;-90
2020/12/18 08:54:24;;;;;;;6.50;2.03;;;7.70;99.90;;;;;;5015205;28;20926;-90
2020/12/18 08:57:12;;;;;;;4.30;1.73;;;7.80;99.90;;;;;;5017370;28;20481;-91
2020/12/18 08:59:39;;;;;;;7.13;2.93;;;7.90;99.90;;;;;;5016687;28;20967;-91
2020/12/18 09:02:14;;;;;;;7.17;3.07;;;7.90;99.90;;;;;;5011892;28;20481;-90
2020/12/18 09:04:41;;;;;;;3.47;1.90;;;7.90;99.90;;;;;;5009695;28;20489;-92
2020/12/18 09:07:07;;;;;;;7.23;2.10;;;7.90;99.90;;;;;;5015691;28;20600;-89
2020/12/18 09:09:39;;;;;;;5.50;2.00;;;7.90;99.90;;;;;;5019905;28;20438;-91
2020/12/18 09:12:24;;;;;;;5.03;2.07;;;7.90;99.90;;;;;;5023716;28;20493;-91
2020/12/18 09:14:53;;;;;;;7.93;3.33;;;7.90;99.90;;;;;;5021446;28;20956;-93
2020/12/18 09:17:21;;;;;;;7.10;2.63;;;8.00;99.90;;;;;;5017273;28;20456;-91
2020/12/18 09:19:48;;;;;;;8.73;2.83;;;8.00;99.90;;;;;;5015553;28;21024;-91
2020/12/18 09:22:14;;;;;;;6.57;2.30;;;8.00;99.90;;;;;;5016867;28;20462;-90
2020/12/18 09:24:41;;;;;;;6.13;3.00;;;8.10;99.90;;;;;;5022725;28;20545;-90
2020/12/18 09:27:11;;;;;;;5.73;1.90;;;8.20;99.90;;;;;;5020208;28;20446;-90
2020/12/18 09:29:39;;;;;;;6.43;1.90;;;8.30;99.90;;;;;;5022240;28;20802;-92
2020/12/18 09:32:14;;;;;;;7.07;2.00;;;8.30;99.90;;;;;;5022511;28;20616;-92
2020/12/18 09:34:41;;;;;;;5.10;2.13;;;8.40;99.90;;;;;;5015313;28;20521;-89
2020/12/18 09:37:15;;;;;;;6.63;2.33;;;8.50;99.90;;;;;;5014887;28;20795;-89
2020/12/18 09:39:42;;;;;;;5.20;2.13;;;8.60;99.90;;;;;;5013640;28;20492;-90
2020/12/18 09:42:08;;;;;;;5.33;2.20;;;8.70;99.90;;;;;;5007124;28;20509;-90
2020/12/18 09:44:34;;;;;;;3.60;1.97;;;8.80;99.90;;;;;;4999906;28;20549;-91
2020/12/18 09:47:01;;;;;;;4.37;1.67;;;8.90;99.90;;;;;;5002034;28;20523;-92
2020/12/18 09:49:27;;;;;;;2.67;1.70;;;9.00;99.90;;;;;;5003889;28;20854;-91
2020/12/18 09:51:55;;;;;;;4.30;2.30;;;8.90;99.90;;;;;;5013817;28;20467;-91
2020/12/18 09:54:21;;;;;;;5.13;2.63;;;9.00;99.90;;;;;;5001318;28;20509;-90
2020/12/18 09:56:47;;;;;;;4.10;1.80;;;9.00;99.90;;;;;;5006790;28;20446;-92
2020/12/18 09:59:14;;;;;;;4.30;1.77;;;9.10;99.90;;;;;;4997720;28;20446;-92
2020/12/18 10:01:40;;;;;;;4.00;1.60;;;9.20;99.90;;;;;;5000749;28;20489;-90
2020/12/18 10:04:07;;;;;;;12.80;2.03;;;9.20;99.90;;;;;;4997821;28;20451;-88
2020/12/18 10:06:33;;;;;;;5.43;1.90;;;9.30;99.90;;;;;;4997871;28;20573;-90
2020/12/18 10:09:00;;;;;;;5.93;1.97;;;9.30;99.90;;;;;;4980477;28;20489;-89
2020/12/18 10:11:28;;;;;;;4.40;1.80;;;9.30;99.90;;;;;;5018529;28;20538;-89
2020/12/18 10:13:54;;;;;;;5.20;1.73;;;9.30;99.90;;;;;;5008631;28;20457;-89
2020/12/18 10:16:20;;;;;;;7.20;2.00;;;9.30;99.90;;;;;;5001796;28;20486;-90
2020/12/18 10:18:47;;;;;;;6.70;1.67;;;9.30;99.90;;;;;;5014990;28;20465;-91
2020/12/18 10:21:13;;;;;;;8.57;1.97;;;9.30;99.90;;;;;;5009492;28;20469;-91
2020/12/18 10:23:40;;;;;;;4.57;1.80;;;9.30;99.90;;;;;;5000021;28;20493;-90
2020/12/18 10:26:13;;;;;;;8.23;1.90;;;9.30;99.90;;;;;;4998457;28;20578;-89
2020/12/18 10:28:39;;;;;;;3.97;1.50;;;9.30;99.90;;;;;;5001081;28;20449;-91
2020/12/18 10:31:06;;;;;;;3.57;1.47;;;9.40;99.90;;;;;;4999955;28;20522;-89
2020/12/18 10:33:32;;;;;;;4.10;1.77;;;9.40;99.90;;;;;;4999670;28;20455;-90
2020/12/18 10:35:58;;;;;;;3.00;1.43;;;9.50;99.90;;;;;;5004893;28;20939;-90
2020/12/18 10:38:27;;;;;;;4.23;1.77;;;9.60;99.90;;;;;;5000941;28;20439;-88
2020/12/18 10:40:54;;;;;;;2.63;1.57;;;9.70;99.90;;;;;;5020487;28;20458;-89
2020/12/18 10:43:22;;;;;;;4.17;1.50;;;9.90;99.90;;;;;;5011137;28;20554;-84
2020/12/18 10:45:48;;;;;;;6.13;1.77;;;10.00;99.90;;;;;;5012423;28;20575;-85
2020/12/18 10:48:14;;;;;;;4.07;1.40;;;10.10;99.90;;;;;;5004959;28;20462;-87
2020/12/18 10:50:44;;;;;;;4.90;1.70;;;10.20;99.90;;;;;;5007819;28;20538;-85
2020/12/18 10:53:10;;;;;;;3.93;1.70;;;10.30;99.90;;;;;;4999762;28;20529;-89
2020/12/18 10:55:36;;;;;;;4.40;1.20;;;10.30;99.90;;;;;;5015330;28;20785;-89
2020/12/18 10:58:03;;;;;;;5.33;1.60;;;10.40;99.90;;;;;;5014350;28;20529;-88
2020/12/18 11:00:30;;;;;;;3.97;1.67;;;10.60;99.90;;;;;;5015048;28;20553;-87
2020/12/18 11:02:57;;;;;;;4.33;1.70;;;10.60;99.90;;;;;;5016117;28;20449;-87
2020/12/18 11:05:23;;;;;;;3.13;1.50;;;10.70;99.90;;;;;;5014675;28;20489;-87
2020/12/18 11:07:51;;;;;;;9.97;2.00;;;10.70;99.90;;;;;;5015943;28;20475;-90
2020/12/18 11:10:17;;;;;;;3.23;1.63;;;10.70;99.90;;;;;;5015704;28;20540;-90
2020/12/18 11:12:43;;;;;;;3.20;1.20;;;10.70;99.90;;;;;;5014857;28;20450;-88
2020/12/18 11:15:10;;;;;;;3.70;1.30;;;10.70;99.90;;;;;;5015921;28;20457;-87
2020/12/18 11:17:37;;;;;;;6.87;2.03;;;10.70;99.90;;;;;;5014616;28;20456;-87
2020/12/18 11:20:04;;;;;;;3.90;1.43;;;10.90;99.90;;;;;;5015578;28;20456;-88
2020/12/18 11:22:30;;;;;;;3.10;2.07;;;11.10;99.90;;;;;;5015674;28;20456;-89
2020/12/18 11:24:56;;;;;;;3.13;1.20;;;12.00;99.90;;;;;;5014647;28;20509;-89
2020/12/18 11:27:23;;;;;;;5.90;1.87;;;13.50;99.90;;;;;;5013848;28;20450;-90
2020/12/18 11:29:49;;;;;;;4.60;1.43;;;15.40;99.90;;;;;;5014238;28;20553;-88
2020/12/18 11:32:17;;;;;;;6.93;1.20;;;16.80;99.90;;;;;;5015064;28;20457;-90
2020/12/18 11:34:45;;;;;;;3.60;1.80;;;17.70;99.90;;;;;;5015657;28;20469;-90
2020/12/18 11:37:11;;;;;;;3.43;1.40;;;18.70;99.90;;;;;;5014051;28;20453;-90
2020/12/18 11:39:37;;;;;;;6.03;1.53;;;18.10;99.90;;;;;;5013479;28;20992;-89
2020/12/18 11:42:04;;;;;;;4.23;1.50;;;16.40;99.90;;;;;;5014200;28;20859;-90
2020/12/18 11:44:30;;;;;;;8.60;1.90;;;16.80;99.90;;;;;;5014069;28;20930;-88
2020/12/18 11:46:56;;;;;;;3.80;1.70;;;16.40;99.90;;;;;;5014184;28;20454;-89
2020/12/18 11:49:23;;;;;;;3.10;1.30;;;16.20;99.90;;;;;;5014035;28;20504;-89
2020/12/18 11:51:50;;;;;;;4.73;1.50;;;15.60;99.90;;;;;;5013835;28;20911;-88
2020/12/18 11:54:17;;;;;;;5.20;1.53;;;15.00;99.90;;;;;;5017392;28;20481;-89
2020/12/18 11:56:48;;;;;;;2.80;1.60;;;15.10;99.90;;;;;;5013603;28;21017;-90
2020/12/18 11:59:14;;;;;;;4.03;1.50;;;16.10;99.90;;;;;;5015175;28;20856;-89
2020/12/18 12:01:40;;;;;;;5.13;1.70;;;17.20;99.90;;;;;;5013097;28;20965;-88
2020/12/18 12:04:07;;;;;;;5.23;1.60;;;16.20;99.90;;;;;;5015095;28;20507;-88
2020/12/18 12:06:33;;;;;;;4.63;1.30;;;17.10;99.90;;;;;;5013342;28;20489;-90
2020/12/18 12:09:03;;;;;;;4.90;1.80;;;16.60;99.90;;;;;;5014460;28;20612;-89
2020/12/18 12:11:36;;;;;;;5.30;1.27;;;17.00;99.90;;;;;;5014075;28;20932;-90
2020/12/18 12:14:03;;;;;;;2.63;1.13;;;16.80;99.90;;;;;;5015211;28;20465;-90
2020/12/18 12:16:32;;;;;;;5.73;1.40;;;17.10;99.90;;;;;;5014582;28;20488;-89
2020/12/18 12:18:58;;;;;;;4.17;1.40;;;15.50;99.90;;;;;;5012234;28;20468;-90
2020/12/18 12:21:32;;;;;;;3.43;1.13;;;14.50;99.90;;;;;;5005841;28;20542;-90
2020/12/18 12:24:00;;;;;;;2.27;1.30;;;14.30;99.90;;;;;;5007483;28;20454;-89
2020/12/18 12:26:26;;;;;;;2.73;1.17;;;14.10;99.90;;;;;;5012907;28;20489;-87
2020/12/18 12:28:54;;;;;;;3.10;1.50;;;13.90;99.90;;;;;;5014580;28;21064;-89
2020/12/18 12:31:24;;;;;;;5.00;2.83;;;13.40;99.90;;;;;;5018438;28;20461;-93
2020/12/18 12:33:50;;;;;;;2.60;1.23;;;13.00;99.90;;;;;;5015321;28;20515;-91
2020/12/18 12:36:19;;;;;;;3.47;1.10;;;12.60;99.90;;;;;;5013785;28;20599;-91
2020/12/18 12:38:46;;;;;;;2.67;1.40;;;12.30;99.90;;;;;;5012181;28;20485;-91
2020/12/18 12:41:13;;;;;;;6.13;1.57;;;12.30;99.90;;;;;;5012238;28;20860;-90
2020/12/18 12:43:40;;;;;;;3.43;1.17;;;12.10;99.90;;;;;;5013534;28;20553;-87
2020/12/18 12:46:06;;;;;;;5.60;1.97;;;11.90;99.90;;;;;;5008967;28;20881;-86
2020/12/18 12:48:33;;;;;;;3.47;1.60;;;11.80;99.90;;;;;;5016032;28;20485;-91
2020/12/18 12:51:07;;;;;;;12.47;7.20;;;11.70;99.90;;;;;;5011257;28;20460;-92
2020/12/18 12:57:10;;;;;;;3.90;1.53;;;11.60;99.90;;;;;;5024800;28;20777;-90
2020/12/18 12:59:37;;;;;;;5.23;1.50;;;11.50;99.90;;;;;;5011382;28;20547;-92
2020/12/18 13:02:04;;;;;;;5.37;1.43;;;11.50;99.90;;;;;;5024707;28;20488;-91
2020/12/18 13:04:31;;;;;;;4.73;1.60;;;11.50;99.90;;;;;;5043632;23;20463;-92